Time;durP1;ratioP1;P1;durP2;ratioP2;P2;SDS_P1;SDS_P2;PMS_P1;PMS_P2;Temp;Humidity;BMP_temperature;BMP_pressure;BME280_temperature;BME280_humidity;BME280_pressure;Samples;Min_cycle;Max_cycle;Signal;HPM_P1;HPM_P2
2023/12/30 00:00:22;;;;;;;9.27;1.33;;;5.10;99.90;;;;;;5073683;28;20115;-60
2023/12/30 00:02:48;;;;;;;11.52;1.60;;;6.00;99.90;;;;;;5073890;28;20044;-59
2023/12/30 00:05:15;;;;;;;12.65;2.22;;;5.60;99.90;;;;;;5055152;28;20048;-60
2023/12/30 00:07:40;;;;;;;13.32;1.55;;;5.30;99.90;;;;;;5072856;28;20043;-60
2023/12/30 00:10:07;;;;;;;14.15;1.45;;;5.00;99.90;;;;;;5072756;28;20041;-60
2023/12/30 00:12:32;;;;;;;11.55;1.58;;;6.00;99.90;;;;;;5072878;28;20661;-59
2023/12/30 00:14:58;;;;;;;9.77;1.65;;;6.40;99.90;;;;;;5073283;28;20036;-59
2023/12/30 00:17:24;;;;;;;10.60;2.58;;;6.30;99.90;;;;;;5073156;28;20040;-59
2023/12/30 00:19:49;;;;;;;9.77;1.75;;;5.10;99.90;;;;;;5073274;28;20036;-60
2023/12/30 00:22:15;;;;;;;14.77;2.38;;;6.40;99.90;;;;;;5072895;28;20500;-60
2023/12/30 00:24:42;;;;;;;11.80;2.22;;;5.90;99.90;;;;;;5072750;28;20043;-59
2023/12/30 00:27:08;;;;;;;14.73;1.75;;;6.40;99.90;;;;;;5072747;28;20036;-59
2023/12/30 00:29:38;;;;;;;13.55;2.25;;;5.80;99.90;;;;;;5072733;28;20048;-59
2023/12/30 00:32:04;;;;;;;13.45;1.58;;;5.10;99.90;;;;;;5072907;28;20048;-59
2023/12/30 00:34:33;;;;;;;14.20;2.53;;;6.40;99.90;;;;;;5071738;28;20555;-59
2023/12/30 00:36:59;;;;;;;12.25;1.85;;;5.10;99.90;;;;;;5071512;28;20484;-59
2023/12/30 00:39:24;;;;;;;10.55;1.73;;;6.40;99.90;;;;;;5072952;28;20169;-59
2023/12/30 00:41:50;;;;;;;11.77;1.50;;;6.30;99.90;;;;;;5072839;28;20036;-59
2023/12/30 00:44:16;;;;;;;8.80;1.58;;;5.40;99.90;;;;;;5071499;28;20338;-59
2023/12/30 00:46:41;;;;;;;12.73;2.85;;;6.40;99.90;;;;;;5072117;28;20048;-60
2023/12/30 00:49:08;;;;;;;10.00;2.28;;;5.40;99.90;;;;;;5072030;28;20040;-60
2023/12/30 00:51:36;;;;;;;10.00;1.63;;;6.40;99.90;;;;;;5072109;28;20114;-60
2023/12/30 00:54:02;;;;;;;13.07;2.53;;;5.50;99.90;;;;;;5071117;28;20048;-60
2023/12/30 00:56:28;;;;;;;9.50;1.45;;;6.20;99.90;;;;;;5072190;28;20071;-59
2023/12/30 00:58:53;;;;;;;8.68;1.45;;;6.10;99.90;;;;;;5072369;28;20115;-59
2023/12/30 01:01:19;;;;;;;15.43;2.63;;;5.30;99.90;;;;;;5072120;28;20557;-59
2023/12/30 01:03:45;;;;;;;7.30;1.13;;;5.50;99.90;;;;;;5072428;28;20042;-59
2023/12/30 01:06:10;;;;;;;9.88;1.98;;;5.90;99.90;;;;;;5072338;28;20054;-59
2023/12/30 01:08:36;;;;;;;11.30;1.50;;;6.00;99.90;;;;;;5072110;28;20074;-59
2023/12/30 01:11:03;;;;;;;13.45;2.75;;;5.30;99.90;;;;;;5072257;28;20033;-59
2023/12/30 01:13:28;;;;;;;9.00;2.20;;;5.30;99.90;;;;;;5072030;28;20044;-59
2023/12/30 01:15:54;;;;;;;11.63;1.52;;;6.00;99.90;;;;;;5072473;28;20035;-60
2023/12/30 01:18:20;;;;;;;12.02;1.73;;;5.20;99.90;;;;;;5072082;28;20037;-60
2023/12/30 01:20:45;;;;;;;9.18;1.30;;;5.40;99.90;;;;;;5072075;28;20041;-59
2023/12/30 01:23:11;;;;;;;10.60;1.80;;;6.20;99.90;;;;;;5071755;28;20404;-59
2023/12/30 01:25:38;;;;;;;9.80;1.77;;;5.20;99.90;;;;;;5071978;28;20076;-59
2023/12/30 01:28:05;;;;;;;8.52;1.70;;;5.30;99.90;;;;;;5071885;28;20049;-59
2023/12/30 01:30:30;;;;;;;12.75;1.73;;;5.70;99.90;;;;;;5071837;28;20037;-59
2023/12/30 01:32:56;;;;;;;9.27;1.95;;;5.20;99.90;;;;;;5071793;28;20464;-60
2023/12/30 01:35:22;;;;;;;10.82;1.60;;;5.50;99.90;;;;;;5071796;28;20120;-60
2023/12/30 01:37:47;;;;;;;10.00;1.73;;;6.00;99.90;;;;;;5071507;28;20064;-60
2023/12/30 01:40:13;;;;;;;8.48;1.60;;;6.20;99.90;;;;;;5071604;28;20162;-59
2023/12/30 01:42:42;;;;;;;12.25;2.10;;;6.20;99.90;;;;;;5071466;28;20044;-60
2023/12/30 01:45:08;;;;;;;13.65;1.77;;;6.30;99.90;;;;;;5071439;28;20063;-59
2023/12/30 01:47:35;;;;;;;11.40;1.77;;;6.20;99.90;;;;;;5071862;28;20480;-59
2023/12/30 01:50:03;;;;;;;13.40;2.13;;;6.30;99.90;;;;;;5071581;28;20047;-60
2023/12/30 01:52:29;;;;;;;9.52;1.48;;;6.40;99.90;;;;;;5071545;28;20060;-59
2023/12/30 01:54:55;;;;;;;11.15;1.40;;;6.10;99.90;;;;;;5071527;28;20051;-60
2023/12/30 01:57:21;;;;;;;18.77;2.00;;;6.50;99.90;;;;;;5071602;28;20037;-60
2023/12/30 01:59:47;;;;;;;14.30;2.90;;;6.30;99.90;;;;;;5071556;28;20036;-60
2023/12/30 02:02:13;;;;;;;15.18;2.35;;;6.50;99.90;;;;;;5073267;28;20054;-60
2023/12/30 02:04:39;;;;;;;12.55;1.85;;;6.50;99.90;;;;;;5075880;28;20037;-60
2023/12/30 02:07:05;;;;;;;12.70;2.08;;;5.90;99.90;;;;;;5075707;28;20516;-59
2023/12/30 02:09:31;;;;;;;10.10;1.27;;;5.90;99.90;;;;;;5074072;28;20439;-59
2023/12/30 02:11:57;;;;;;;8.75;1.90;;;5.90;99.90;;;;;;5074105;28;20044;-60
2023/12/30 02:14:27;;;;;;;11.20;2.50;;;6.40;99.90;;;;;;5075386;28;20044;-59
2023/12/30 02:16:53;;;;;;;14.73;1.95;;;6.50;99.90;;;;;;5075401;28;20036;-60
2023/12/30 02:19:18;;;;;;;11.50;1.67;;;6.60;99.90;;;;;;5075211;28;20043;-59
2023/12/30 02:21:45;;;;;;;11.27;1.98;;;6.60;99.90;;;;;;5075327;28;20032;-59
2023/12/30 02:24:10;;;;;;;10.25;1.60;;;6.60;99.90;;;;;;5075280;28;20044;-60
2023/12/30 02:26:36;;;;;;;14.73;2.05;;;6.40;99.90;;;;;;5074907;28;20043;-60
2023/12/30 02:29:02;;;;;;;15.07;2.03;;;6.20;99.90;;;;;;5074896;28;20097;-60
2023/12/30 02:31:27;;;;;;;13.70;2.15;;;5.90;99.90;;;;;;5074928;28;20045;-60
2023/12/30 02:33:53;;;;;;;13.10;2.20;;;5.90;99.90;;;;;;5073966;28;20043;-59
2023/12/30 02:36:19;;;;;;;11.93;1.50;;;6.80;99.90;;;;;;5074887;28;20426;-59
2023/12/30 02:38:44;;;;;;;14.60;1.92;;;6.10;99.90;;;;;;5074969;28;20032;-59
2023/12/30 02:41:10;;;;;;;12.98;1.65;;;6.80;99.90;;;;;;5074875;28;20054;-59
2023/12/30 02:43:56;;;;;;;11.63;2.30;;;6.50;99.90;;;;;;5074638;28;20037;-59
2023/12/30 02:46:22;;;;;;;13.00;2.40;;;6.50;99.90;;;;;;5074354;28;20075;-59
2023/12/30 02:48:48;;;;;;;13.65;1.75;;;6.40;99.90;;;;;;5074393;28;20040;-60
2023/12/30 02:51:17;;;;;;;13.15;2.42;;;6.70;99.90;;;;;;5074485;28;20127;-59
2023/12/30 02:53:43;;;;;;;12.40;2.40;;;6.20;99.90;;;;;;5074288;28;20052;-60
2023/12/30 02:56:23;;;;;;;13.35;3.05;;;6.50;99.90;;;;;;5074600;28;20037;-59
2023/12/30 02:58:56;;;;;;;13.63;2.55;;;6.20;99.90;;;;;;5074277;28;20036;-59
2023/12/30 03:01:27;;;;;;;13.35;2.10;;;6.10;99.90;;;;;;5074500;28;20041;-59
2023/12/30 03:03:54;;;;;;;13.98;2.22;;;6.90;99.90;;;;;;5074981;28;20438;-59
2023/12/30 03:06:21;;;;;;;13.27;2.03;;;6.90;99.90;;;;;;5074305;28;20055;-59
2023/12/30 03:08:47;;;;;;;11.40;2.03;;;7.00;99.90;;;;;;5074708;28;20109;-59
2023/12/30 03:11:13;;;;;;;13.38;2.20;;;7.00;99.90;;;;;;5073117;28;20469;-60
2023/12/30 03:13:38;;;;;;;11.20;1.60;;;7.00;99.90;;;;;;5074317;28;20045;-60
2023/12/30 03:16:04;;;;;;;13.85;2.53;;;6.30;99.90;;;;;;5073901;28;20036;-60
2023/12/30 03:18:30;;;;;;;12.73;2.00;;;6.60;99.90;;;;;;5074021;28;20075;-60
2023/12/30 03:20:56;;;;;;;11.70;2.28;;;7.00;99.90;;;;;;5073947;28;20076;-60
2023/12/30 03:23:22;;;;;;;19.67;3.50;;;6.90;99.90;;;;;;5074331;28;20040;-60
2023/12/30 03:25:48;;;;;;;10.95;1.77;;;6.90;99.90;;;;;;5074172;28;20036;-59
2023/12/30 03:28:14;;;;;;;9.18;1.95;;;6.30;99.90;;;;;;5074313;28;20075;-59
2023/12/30 03:30:39;;;;;;;12.65;1.60;;;6.50;99.90;;;;;;5074060;28;20451;-59
2023/12/30 03:33:05;;;;;;;11.38;1.73;;;6.70;99.90;;;;;;5073942;28;20045;-60
2023/12/30 03:35:33;;;;;;;9.88;1.92;;;6.70;99.90;;;;;;5073789;28;20048;-59
2023/12/30 03:37:58;;;;;;;13.90;3.47;;;6.50;99.90;;;;;;5073912;28;20032;-60
2023/12/30 03:40:24;;;;;;;13.07;1.90;;;6.30;99.90;;;;;;5073882;28;20558;-59
2023/12/30 03:42:50;;;;;;;16.02;2.08;;;7.00;99.90;;;;;;5073486;28;20048;-59
2023/12/30 03:45:15;;;;;;;13.07;1.95;;;6.30;99.90;;;;;;5073394;28;20089;-59
2023/12/30 03:47:42;;;;;;;12.30;1.70;;;6.20;99.90;;;;;;5073406;28;20040;-59
2023/12/30 03:50:07;;;;;;;13.27;1.95;;;6.70;99.90;;;;;;5073273;28;20496;-60
2023/12/30 03:52:33;;;;;;;11.60;2.13;;;6.90;99.90;;;;;;5071878;28;20053;-60
2023/12/30 03:54:59;;;;;;;15.77;3.33;;;6.30;99.90;;;;;;5073213;28;20040;-59
2023/12/30 03:57:25;;;;;;;14.30;2.42;;;6.90;99.90;;;;;;5073226;28;20086;-59
2023/12/30 03:59:51;;;;;;;8.98;2.05;;;6.20;99.90;;;;;;5073425;28;20043;-59
2023/12/30 04:02:20;;;;;;;15.35;2.00;;;6.30;99.90;;;;;;5073465;28;20037;-59
2023/12/30 04:04:47;;;;;;;11.45;1.70;;;6.20;99.90;;;;;;5073341;28;20437;-60
2023/12/30 04:07:12;;;;;;;15.07;2.20;;;6.70;99.90;;;;;;5072971;28;20049;-60
2023/12/30 04:09:38;;;;;;;12.70;2.05;;;6.30;99.90;;;;;;5073064;28;20062;-60
2023/12/30 04:12:04;;;;;;;11.80;1.70;;;6.20;99.90;;;;;;5071698;28;20032;-59
2023/12/30 04:14:30;;;;;;;10.52;1.83;;;6.10;99.90;;;;;;5072963;28;20040;-60
2023/12/30 04:16:55;;;;;;;12.00;2.05;;;6.80;99.90;;;;;;5073155;28;20392;-59
2023/12/30 04:19:21;;;;;;;11.57;2.10;;;6.00;99.90;;;;;;5073029;28;20036;-60
2023/12/30 04:21:47;;;;;;;18.85;3.03;;;6.10;99.90;;;;;;5073413;28;20036;-59
2023/12/30 04:24:12;;;;;;;12.80;2.03;;;6.00;99.90;;;;;;5072963;28;20051;-60
2023/12/30 04:26:38;;;;;;;13.88;2.05;;;6.90;99.90;;;;;;5072137;28;20044;-59
2023/12/30 04:29:03;;;;;;;16.52;2.33;;;6.60;99.90;;;;;;5072031;28;20044;-60
2023/12/30 04:31:29;;;;;;;16.95;2.17;;;6.10;99.90;;;;;;5073090;28;20443;-59
2023/12/30 04:33:55;;;;;;;10.55;2.00;;;6.20;99.90;;;;;;5072805;28;20043;-59
2023/12/30 04:36:20;;;;;;;16.33;2.00;;;6.20;99.90;;;;;;5071337;28;20082;-58
2023/12/30 04:38:46;;;;;;;13.68;2.17;;;6.30;99.90;;;;;;5072433;28;20093;-60
2023/12/30 04:41:12;;;;;;;13.50;2.85;;;7.00;99.90;;;;;;5072533;28;20119;-60
2023/12/30 04:43:37;;;;;;;12.32;2.10;;;6.40;99.90;;;;;;5072590;28;20133;-59
2023/12/30 04:46:03;;;;;;;16.77;2.85;;;6.40;99.90;;;;;;5072900;28;20063;-60
2023/12/30 04:48:29;;;;;;;13.52;2.88;;;6.40;99.90;;;;;;5072106;28;20055;-60
2023/12/30 04:50:55;;;;;;;11.82;1.88;;;6.60;99.90;;;;;;5072101;28;20404;-59
2023/12/30 04:53:20;;;;;;;16.70;2.35;;;6.40;99.90;;;;;;5072022;28;20135;-59
2023/12/30 04:55:46;;;;;;;13.85;3.90;;;6.90;99.90;;;;;;5072635;28;20829;-59
2023/12/30 04:58:12;;;;;;;13.95;1.95;;;7.10;99.90;;;;;;5072118;28;20072;-59
2023/12/30 05:00:38;;;;;;;15.45;1.83;;;6.20;99.90;;;;;;5072465;28;20042;-60
2023/12/30 05:03:03;;;;;;;12.25;1.80;;;6.20;99.90;;;;;;5071890;28;20036;-59
2023/12/30 05:05:29;;;;;;;17.75;3.03;;;7.00;99.90;;;;;;5072196;28;20048;-59
2023/12/30 05:07:55;;;;;;;10.32;1.55;;;6.20;99.90;;;;;;5071830;28;20036;-60
2023/12/30 05:10:20;;;;;;;13.02;2.30;;;7.00;99.90;;;;;;5071814;28;20051;-59
2023/12/30 05:12:46;;;;;;;11.63;2.15;;;6.30;99.90;;;;;;5053787;28;20044;-59
2023/12/30 05:15:13;;;;;;;11.80;2.35;;;6.90;99.90;;;;;;5071461;28;20116;-61
2023/12/30 05:17:38;;;;;;;13.45;1.83;;;7.00;99.90;;;;;;5070264;28;20079;-60
2023/12/30 05:20:08;;;;;;;11.77;2.22;;;6.70;99.90;;;;;;5071812;28;20075;-60
2023/12/30 05:22:35;;;;;;;11.70;2.00;;;6.20;99.90;;;;;;5071786;28;20060;-59
2023/12/30 05:25:00;;;;;;;24.67;2.67;;;6.20;99.90;;;;;;5071915;28;20040;-60
2023/12/30 05:27:26;;;;;;;15.48;2.17;;;6.10;99.90;;;;;;5071985;28;20416;-60
2023/12/30 05:29:52;;;;;;;15.00;1.70;;;7.00;99.90;;;;;;5071928;28;20045;-60
2023/12/30 05:32:17;;;;;;;13.77;2.25;;;6.80;99.90;;;;;;5071430;28;20040;-60
2023/12/30 05:34:44;;;;;;;21.00;2.50;;;6.90;99.90;;;;;;5071671;28;20111;-60
2023/12/30 05:37:10;;;;;;;10.75;1.85;;;6.20;99.90;;;;;;5071519;28;20120;-60
2023/12/30 05:39:36;;;;;;;12.95;2.08;;;6.80;99.90;;;;;;5071980;28;20033;-59
2023/12/30 05:42:02;;;;;;;10.88;1.80;;;7.00;99.90;;;;;;5071697;28;20071;-59
2023/12/30 05:44:28;;;;;;;10.68;2.05;;;7.00;99.90;;;;;;5071632;28;20048;-60
2023/12/30 05:46:54;;;;;;;16.20;2.50;;;7.00;99.90;;;;;;5071463;28;20036;-60
2023/12/30 05:49:19;;;;;;;15.40;2.25;;;6.90;99.90;;;;;;5070297;28;20166;-59
2023/12/30 05:51:45;;;;;;;12.00;2.10;;;6.90;99.90;;;;;;5071469;28;20091;-60
2023/12/30 05:54:11;;;;;;;11.93;1.95;;;6.00;99.90;;;;;;5071262;28;20041;-60
2023/12/30 05:56:37;;;;;;;10.38;2.15;;;6.20;99.90;;;;;;5070083;28;20040;-59
2023/12/30 05:59:02;;;;;;;15.18;2.17;;;6.90;99.90;;;;;;5071825;28;20115;-60
2023/12/30 06:01:28;;;;;;;13.07;2.22;;;6.10;99.90;;;;;;5071238;28;20119;-59
2023/12/30 06:03:54;;;;;;;12.60;1.98;;;6.20;99.90;;;;;;5071525;28;20055;-59
2023/12/30 06:06:20;;;;;;;15.52;2.80;;;7.00;99.90;;;;;;5071535;28;20045;-60
2023/12/30 06:08:46;;;;;;;11.20;1.85;;;6.90;99.90;;;;;;5071494;28;20040;-59
2023/12/30 06:11:15;;;;;;;18.02;3.88;;;6.60;99.90;;;;;;5071481;28;20056;-59
2023/12/30 06:13:41;;;;;;;14.85;2.88;;;6.10;99.90;;;;;;5071428;28;20491;-60
2023/12/30 06:16:10;;;;;;;14.75;1.83;;;6.20;99.90;;;;;;5071680;28;20040;-60
2023/12/30 06:18:36;;;;;;;14.98;2.22;;;6.20;99.90;;;;;;5071246;28;20048;-59
2023/12/30 06:21:04;;;;;;;18.92;2.40;;;6.80;99.90;;;;;;5071335;28;20079;-59
2023/12/30 06:23:31;;;;;;;20.52;2.58;;;6.90;99.90;;;;;;5071241;28;20143;-60
2023/12/30 06:25:58;;;;;;;11.07;2.10;;;6.30;99.90;;;;;;5071265;28;20098;-60
2023/12/30 06:28:26;;;;;;;12.20;2.50;;;6.70;99.90;;;;;;5071127;28;20037;-59
2023/12/30 06:30:52;;;;;;;19.63;2.58;;;6.30;99.90;;;;;;5071051;28;20477;-59
2023/12/30 06:33:19;;;;;;;12.55;1.88;;;6.10;99.90;;;;;;5071542;28;20041;-59
2023/12/30 06:35:45;;;;;;;16.38;2.70;;;6.30;99.90;;;;;;5071008;28;20484;-59
2023/12/30 06:38:11;;;;;;;16.20;2.25;;;6.20;99.90;;;;;;5070764;28;20048;-59
2023/12/30 06:40:37;;;;;;;12.60;3.05;;;7.00;99.90;;;;;;5071087;28;20094;-60
2023/12/30 06:43:03;;;;;;;13.13;1.83;;;6.20;99.90;;;;;;5070932;28;20044;-59
2023/12/30 06:45:28;;;;;;;11.18;2.10;;;6.60;99.90;;;;;;5070978;28;20068;-60
2023/12/30 06:47:54;;;;;;;11.45;1.77;;;6.20;99.90;;;;;;5071738;28;20052;-59
2023/12/30 06:50:22;;;;;;;16.42;1.88;;;6.90;99.90;;;;;;5074466;28;20040;-60
2023/12/30 06:52:48;;;;;;;10.80;2.53;;;6.40;99.90;;;;;;5074512;28;20052;-60
2023/12/30 06:55:14;;;;;;;15.80;2.05;;;6.30;99.90;;;;;;5074336;28;20496;-59
2023/12/30 06:57:41;;;;;;;10.05;2.10;;;6.20;99.90;;;;;;5073332;28;20396;-60
2023/12/30 07:00:07;;;;;;;13.18;2.47;;;6.10;99.90;;;;;;5074559;28;20032;-61
2023/12/30 07:02:34;;;;;;;16.10;2.22;;;6.10;99.90;;;;;;5074596;28;20036;-59
2023/12/30 07:04:59;;;;;;;15.50;2.22;;;6.90;99.90;;;;;;5074229;28;20048;-59
2023/12/30 07:07:25;;;;;;;14.85;2.05;;;6.70;99.90;;;;;;5074098;28;20049;-59
2023/12/30 07:09:51;;;;;;;16.25;1.90;;;6.10;99.90;;;;;;5073354;28;20083;-60
2023/12/30 07:12:17;;;;;;;11.88;1.80;;;6.90;99.90;;;;;;5073288;28;20072;-60
2023/12/30 07:14:43;;;;;;;14.25;1.80;;;6.10;99.90;;;;;;5073044;28;20037;-58
2023/12/30 07:17:08;;;;;;;13.80;2.10;;;6.90;99.90;;;;;;5059418;28;20524;-60
2023/12/30 07:19:34;;;;;;;11.13;2.38;;;6.30;99.90;;;;;;5052858;28;20037;-59
2023/12/30 07:22:00;;;;;;;15.52;1.73;;;6.10;99.90;;;;;;5053456;28;20041;-59
2023/12/30 07:24:25;;;;;;;10.63;1.70;;;6.90;99.90;;;;;;5053161;28;20064;-60
2023/12/30 07:26:52;;;;;;;15.82;1.90;;;6.20;99.90;;;;;;5053077;28;20036;-59
2023/12/30 07:29:17;;;;;;;8.48;1.65;;;7.00;99.90;;;;;;5052350;28;20037;-59
2023/12/30 07:31:43;;;;;;;8.23;1.40;;;6.90;99.90;;;;;;5053333;28;20485;-59
2023/12/30 07:34:10;;;;;;;12.55;1.88;;;6.00;99.90;;;;;;5055421;28;20048;-60
2023/12/30 07:36:36;;;;;;;10.65;1.60;;;6.10;99.90;;;;;;5055076;28;20048;-60
2023/12/30 07:39:01;;;;;;;10.73;2.63;;;6.10;99.90;;;;;;5052193;28;20044;-59
2023/12/30 07:41:27;;;;;;;9.85;2.13;;;6.10;99.90;;;;;;5052448;28;20041;-60
2023/12/30 07:43:53;;;;;;;15.73;2.60;;;6.80;99.90;;;;;;5052276;28;20052;-59
2023/12/30 07:46:19;;;;;;;10.65;1.17;;;6.90;99.90;;;;;;5052410;28;20094;-60
2023/12/30 07:48:44;;;;;;;11.05;1.77;;;6.40;99.90;;;;;;5052697;28;20379;-60
2023/12/30 07:51:10;;;;;;;12.32;1.45;;;6.60;99.90;;;;;;5054715;28;20041;-59
2023/12/30 07:53:36;;;;;;;17.33;2.10;;;6.90;99.90;;;;;;5052883;28;20080;-60
2023/12/30 07:56:03;;;;;;;8.38;1.65;;;6.10;99.90;;;;;;5052789;28;20041;-61
2023/12/30 07:58:28;;;;;;;9.68;1.73;;;6.30;99.90;;;;;;5053081;28;20072;-61
2023/12/30 08:00:54;;;;;;;14.85;2.17;;;6.80;99.90;;;;;;5051711;28;20142;-60
2023/12/30 08:03:20;;;;;;;7.68;2.22;;;6.80;99.90;;;;;;5052773;28;20106;-60
2023/12/30 08:05:45;;;;;;;10.73;1.23;;;6.80;99.90;;;;;;5052781;28;20128;-61
2023/12/30 08:08:14;;;;;;;9.65;2.30;;;6.00;99.90;;;;;;5052659;28;20124;-60
2023/12/30 08:10:39;;;;;;;8.93;1.58;;;6.60;99.90;;;;;;5052459;28;20040;-60
2023/12/30 08:13:05;;;;;;;11.77;1.98;;;6.10;99.90;;;;;;5051570;28;20075;-60
2023/12/30 08:15:31;;;;;;;10.57;1.73;;;5.90;99.90;;;;;;5052541;28;20136;-60
2023/12/30 08:17:56;;;;;;;12.27;1.55;;;6.10;99.90;;;;;;5052277;28;20040;-60
2023/12/30 08:20:22;;;;;;;8.68;1.42;;;6.80;99.90;;;;;;5059632;28;20043;-60
2023/12/30 08:22:50;;;;;;;11.63;1.77;;;6.80;99.90;;;;;;5071387;28;20079;-60
2023/12/30 08:25:16;;;;;;;12.05;1.45;;;6.70;99.90;;;;;;5055001;28;20045;-61
2023/12/30 08:27:41;;;;;;;12.43;1.70;;;6.10;99.90;;;;;;5050310;28;20047;-61
2023/12/30 08:30:08;;;;;;;15.75;1.95;;;6.80;99.90;;;;;;5052284;28;20041;-60
2023/12/30 08:32:34;;;;;;;10.88;2.15;;;6.80;99.90;;;;;;5064441;28;20040;-60
2023/12/30 08:35:02;;;;;;;11.20;1.73;;;6.10;99.90;;;;;;5072283;28;20043;-60
2023/12/30 08:37:29;;;;;;;12.57;1.70;;;6.60;99.90;;;;;;5071937;28;20150;-60
2023/12/30 08:39:54;;;;;;;9.15;1.63;;;6.50;99.90;;;;;;5071360;28;20044;-60
2023/12/30 08:42:21;;;;;;;8.70;1.38;;;6.70;99.90;;;;;;5071867;28;20378;-60
2023/12/30 08:44:47;;;;;;;11.20;1.75;;;6.10;99.90;;;;;;5071488;28;20500;-60
2023/12/30 08:47:15;;;;;;;8.48;1.60;;;6.10;99.90;;;;;;5071543;28;20063;-61
2023/12/30 08:49:41;;;;;;;8.05;1.40;;;6.10;99.90;;;;;;5071503;28;20087;-60
2023/12/30 08:52:07;;;;;;;12.57;1.80;;;6.10;99.90;;;;;;5070135;28;20095;-61
2023/12/30 08:54:32;;;;;;;11.38;1.80;;;6.90;99.90;;;;;;5071473;28;20362;-60
2023/12/30 08:56:58;;;;;;;10.15;1.50;;;7.00;99.90;;;;;;5071383;28;20520;-60
2023/12/30 08:59:24;;;;;;;15.40;2.35;;;6.60;99.90;;;;;;5070548;28;20582;-60
2023/12/30 09:01:51;;;;;;;8.55;1.20;;;6.10;99.90;;;;;;5071523;28;20845;-60
2023/12/30 09:04:17;;;;;;;15.07;2.53;;;6.10;99.90;;;;;;5071784;28;20044;-60
2023/12/30 09:06:43;;;;;;;9.90;1.67;;;6.30;99.90;;;;;;5071308;28;20040;-60
2023/12/30 09:09:08;;;;;;;11.48;2.03;;;6.10;99.90;;;;;;5070070;28;20135;-60
2023/12/30 09:11:37;;;;;;;12.27;1.48;;;6.20;99.90;;;;;;5071015;28;20044;-60
2023/12/30 09:14:04;;;;;;;12.18;3.20;;;6.80;99.90;;;;;;5071392;28;20040;-60
2023/12/30 09:16:30;;;;;;;16.85;1.83;;;6.70;99.90;;;;;;5071300;28;20028;-60
2023/12/30 09:18:55;;;;;;;8.05;1.40;;;5.90;99.90;;;;;;5071244;28;20363;-60
2023/12/30 09:21:21;;;;;;;11.50;1.55;;;5.90;99.90;;;;;;5070045;28;20075;-61
2023/12/30 09:23:46;;;;;;;12.18;1.77;;;6.00;99.90;;;;;;5071268;28;20032;-60
2023/12/30 09:26:14;;;;;;;12.45;1.65;;;5.90;99.90;;;;;;5071187;28;20044;-58
2023/12/30 09:28:39;;;;;;;7.07;1.75;;;6.70;99.90;;;;;;5071210;28;20128;-61
2023/12/30 09:31:05;;;;;;;10.00;2.83;;;6.00;99.90;;;;;;5069860;28;20123;-60
2023/12/30 09:33:31;;;;;;;14.15;3.10;;;6.00;99.90;;;;;;5071162;28;20067;-61
2023/12/30 09:35:57;;;;;;;9.23;1.88;;;6.80;99.90;;;;;;5071367;28;20039;-61
2023/12/30 09:38:26;;;;;;;10.13;1.45;;;6.10;99.90;;;;;;5071079;28;20043;-61
2023/12/30 09:40:53;;;;;;;8.90;1.85;;;7.00;99.90;;;;;;5071162;28;20119;-61
2023/12/30 09:43:26;;;;;;;17.33;1.90;;;6.10;99.90;;;;;;5070005;28;20037;-60
2023/12/30 09:45:54;;;;;;;8.73;1.52;;;6.30;99.90;;;;;;5071871;28;20040;-61
2023/12/30 09:48:25;;;;;;;9.80;1.65;;;7.10;99.90;;;;;;5071955;28;20038;-61
2023/12/30 09:50:51;;;;;;;7.55;1.58;;;6.90;99.90;;;;;;5071693;28;20044;-60
2023/12/30 09:53:21;;;;;;;9.93;2.38;;;7.00;99.90;;;;;;5071452;28;20515;-61
2023/12/30 09:55:50;;;;;;;10.50;2.38;;;6.30;99.90;;;;;;5071895;28;20184;-60
2023/12/30 09:58:17;;;;;;;14.05;2.28;;;6.80;99.90;;;;;;5071618;28;20040;-60
2023/12/30 10:00:43;;;;;;;8.30;1.58;;;7.10;99.90;;;;;;5071750;28;20037;-60
2023/12/30 10:03:13;;;;;;;11.23;2.10;;;7.20;99.90;;;;;;5070341;28;20048;-60
2023/12/30 10:06:03;;;;;;;8.40;1.30;;;7.20;99.90;;;;;;5071561;28;20523;-61
2023/12/30 10:08:29;;;;;;;8.63;1.33;;;6.50;99.90;;;;;;5071450;28;20056;-62
2023/12/30 10:10:57;;;;;;;8.48;1.92;;;7.00;99.90;;;;;;5071586;28;20048;-61
2023/12/30 10:13:26;;;;;;;8.93;1.42;;;6.50;99.90;;;;;;5071805;28;20366;-61
2023/12/30 10:15:57;;;;;;;13.48;1.77;;;6.60;99.90;;;;;;5071920;28;20044;-61
2023/12/30 10:18:23;;;;;;;10.73;1.38;;;7.30;99.90;;;;;;5072039;28;20040;-61
2023/12/30 10:20:49;;;;;;;11.20;1.83;;;7.40;99.90;;;;;;5071543;28;20084;-60
2023/12/30 10:23:15;;;;;;;15.02;2.20;;;6.80;99.90;;;;;;5072836;28;20137;-61
2023/12/30 10:25:41;;;;;;;7.53;1.48;;;6.70;99.90;;;;;;5075034;28;20041;-60
2023/12/30 10:28:07;;;;;;;8.25;1.95;;;7.30;99.90;;;;;;5074891;28;20285;-60
2023/12/30 10:30:33;;;;;;;8.95;2.15;;;6.90;99.90;;;;;;5074718;28;20049;-60
2023/12/30 10:33:07;;;;;;;9.75;1.40;;;6.60;99.90;;;;;;5075590;28;20033;-60
2023/12/30 10:35:32;;;;;;;8.63;1.42;;;7.40;99.90;;;;;;5075285;28;20115;-61
2023/12/30 10:38:00;;;;;;;10.23;1.30;;;6.60;99.90;;;;;;5074977;28;20563;-61
2023/12/30 10:40:26;;;;;;;8.30;1.38;;;7.40;99.90;;;;;;5074495;28;20063;-60
2023/12/30 10:42:52;;;;;;;8.50;1.33;;;6.70;99.90;;;;;;5075115;28;20037;-61
2023/12/30 10:45:18;;;;;;;9.93;2.00;;;6.80;99.90;;;;;;5074846;28;20447;-60
2023/12/30 10:47:47;;;;;;;9.35;1.42;;;7.10;99.90;;;;;;5074909;28;20044;-61
2023/12/30 10:50:13;;;;;;;6.47;1.38;;;7.30;99.90;;;;;;5074624;28;20040;-61
2023/12/30 10:52:48;;;;;;;11.75;1.95;;;7.00;99.90;;;;;;5074790;28;20067;-61
2023/12/30 10:55:17;;;;;;;8.65;1.58;;;6.90;99.90;;;;;;5074697;28;20086;-61
2023/12/30 10:57:53;;;;;;;11.85;2.33;;;7.40;99.90;;;;;;5074735;28;20432;-61
2023/12/30 11:00:20;;;;;;;11.40;2.00;;;7.30;99.90;;;;;;5074710;28;20074;-61
2023/12/30 11:02:47;;;;;;;13.18;1.60;;;7.30;99.90;;;;;;5074564;28;20484;-60
2023/12/30 11:05:40;;;;;;;11.55;1.85;;;7.50;99.90;;;;;;5074487;28;20052;-61
2023/12/30 11:08:06;;;;;;;12.07;1.67;;;7.60;99.90;;;;;;5063736;28;20097;-61
2023/12/30 11:10:33;;;;;;;14.23;2.78;;;7.00;99.90;;;;;;5073520;28;20116;-60
2023/12/30 11:12:59;;;;;;;13.20;3.47;;;7.10;99.90;;;;;;5074386;28;20041;-61
2023/12/30 11:15:30;;;;;;;11.13;1.50;;;7.60;99.90;;;;;;5074419;28;20380;-61
2023/12/30 11:17:56;;;;;;;10.25;2.25;;;7.50;99.90;;;;;;5074286;28;20577;-61
2023/12/30 11:20:30;;;;;;;6.63;1.30;;;7.00;99.90;;;;;;5074666;28;20428;-58
2023/12/30 11:23:03;;;;;;;8.75;1.70;;;7.10;99.90;;;;;;5074310;28;20055;-60
2023/12/30 11:25:34;;;;;;;5.32;1.38;;;7.50;99.90;;;;;;5074179;28;20087;-61
2023/12/30 11:28:21;;;;;;;8.88;1.55;;;7.70;99.90;;;;;;5072965;28;20128;-61
2023/12/30 11:30:58;;;;;;;13.88;1.88;;;7.40;99.90;;;;;;5074046;28;20052;-60
2023/12/30 11:33:24;;;;;;;5.88;1.08;;;7.70;99.90;;;;;;5073946;28;20382;-59
2023/12/30 11:35:56;;;;;;;7.32;1.20;;;7.40;99.90;;;;;;5074246;28;20086;-61
2023/12/30 11:38:24;;;;;;;7.22;1.08;;;7.80;99.90;;;;;;5073888;28;20474;-60
2023/12/30 11:40:57;;;;;;;9.93;1.25;;;7.40;99.90;;;;;;5073753;28;20055;-61
2023/12/30 11:43:25;;;;;;;14.30;1.38;;;7.30;99.90;;;;;;5074118;28;20098;-60
2023/12/30 11:45:52;;;;;;;11.40;1.52;;;7.20;99.90;;;;;;5074269;28;20384;-60
2023/12/30 11:48:17;;;;;;;9.10;1.30;;;7.70;99.90;;;;;;5073780;28;20045;-61
2023/12/30 11:50:43;;;;;;;5.68;1.63;;;7.60;99.90;;;;;;5073657;28;20054;-61
2023/12/30 11:53:09;;;;;;;8.40;2.10;;;7.40;99.90;;;;;;5073406;28;20068;-61
2023/12/30 11:55:35;;;;;;;8.43;1.58;;;7.90;99.90;;;;;;5073881;28;20056;-60
2023/12/30 11:58:00;;;;;;;6.55;1.20;;;8.00;99.90;;;;;;5073777;28;20040;-60
2023/12/30 12:00:26;;;;;;;11.63;1.77;;;7.50;99.90;;;;;;5073918;28;20105;-61
2023/12/30 12:02:57;;;;;;;9.98;1.88;;;7.90;99.90;;;;;;5073888;28;20086;-61
2023/12/30 12:05:23;;;;;;;8.27;1.30;;;7.40;99.90;;;;;;5073450;28;20033;-62
2023/12/30 12:07:49;;;;;;;9.40;1.65;;;7.90;99.90;;;;;;5073387;28;20041;-61
2023/12/30 12:10:15;;;;;;;8.93;1.50;;;7.90;99.90;;;;;;5073494;28;20051;-60
2023/12/30 12:12:43;;;;;;;5.43;1.27;;;7.30;99.90;;;;;;5072318;28;20041;-60
2023/12/30 12:15:09;;;;;;;7.88;1.17;;;7.30;99.90;;;;;;5072903;28;20068;-61
2023/12/30 12:17:35;;;;;;;10.73;1.15;;;7.70;99.90;;;;;;5073434;28;20063;-60
2023/12/30 12:20:04;;;;;;;7.32;1.60;;;7.30;99.90;;;;;;5073411;28;20040;-61
2023/12/30 12:22:30;;;;;;;7.53;2.00;;;7.70;99.90;;;;;;5073044;28;20044;-61
2023/12/30 12:24:56;;;;;;;8.48;1.65;;;7.70;99.90;;;;;;5073258;28;20094;-61
2023/12/30 12:27:22;;;;;;;11.32;1.35;;;7.50;99.90;;;;;;5072909;28;20040;-60
2023/12/30 12:29:52;;;;;;;9.80;1.63;;;7.60;99.90;;;;;;5072544;28;20040;-61
2023/12/30 12:32:22;;;;;;;4.88;1.17;;;7.80;99.90;;;;;;5072975;28;20040;-62
2023/12/30 12:34:48;;;;;;;11.10;1.63;;;7.70;99.90;;;;;;5071275;28;20405;-61
2023/12/30 12:37:15;;;;;;;13.55;2.35;;;7.10;99.90;;;;;;5072552;28;20067;-61
2023/12/30 12:39:45;;;;;;;9.35;1.52;;;7.00;99.90;;;;;;5072350;28;20059;-61
2023/12/30 12:42:14;;;;;;;12.85;1.67;;;7.40;99.90;;;;;;5072987;28;20423;-60
2023/12/30 12:44:41;;;;;;;9.80;1.80;;;7.60;99.90;;;;;;5072738;28;20048;-61
2023/12/30 12:47:08;;;;;;;9.07;1.80;;;7.20;99.90;;;;;;5072036;28;20036;-61